• Join FlightAware (Why Join?)
  • Login
  • US Flag 
01:06PM EDT


 

Airport Tracker/Info


-or-


 

Live Flight TrackerFlight Track Log ✈ USC105 ✈ 03-Jul-2013 ✈ KDPA - KYIP

Flight Track Log - Related Links

Times and Time Zones

All times are in EDT time to prevent confusion due to time zone crossing. See the USC105 flight status page for this flight to view local times or setup timezone preferences in your user account.

Time Position Orientation Groundspeed Altitude Reporting Facility
EDT Latitude Longitude Course Direction KTS MPH feet Rate Location/Type
05:35AM 41.8667 -88.2333 153° Southeast 129 148 2,200  Level Chicago TRACON
05:37AM 41.8258 -88.2172 164° South 123 142 3,800 1,200 Climbing Chicago Center
05:38AM 41.7992 -88.1903 143° Southeast 120 138 5,000 1,080 Climbing Chicago Center
05:39AM 41.7736 -88.1564 135° Southeast 124 143 6,000 480 Climbing Chicago Center
05:40AM 41.7453 -88.1086 128° Southeast 163 188 6,000  Level Chicago Center
05:41AM 41.9431 -87.8461 153° Southeast  Level Estimated
05:41AM 41.7164 -88.0575 127° Southeast 171 197 6,000  Level Chicago Center
05:42AM 41.6933 -87.9981 117° Southeast 180 207 6,000 480 Level Chicago Center
05:43AM 41.6911 -87.9367 93° East 163 188 7,000 480 Climbing Chicago Center
05:44AM 41.6906 -87.8739 91° East 165 190 7,000  Level Chicago Center
05:45AM 41.7008 -87.8058 79° East 180 207 7,000  Level Chicago Center
05:46AM 41.7106 -87.7367 79° East 187 215 7,000  Level Chicago Center
05:47AM 41.7203 -87.6669 79° East 190 219 7,000  Level Chicago Center
05:48AM 41.7292 -87.5978 80° East 191 220 7,000  Level Chicago Center
05:49AM 41.7394 -87.5300 78° East 188 216 7,000  Level Chicago Center
05:50AM 41.7494 -87.4597 79° East 192 221 7,000  Level Chicago Center
05:51AM 41.7611 -87.3750 80° East 194 223 7,000  Level Chicago Center
05:52AM 41.7722 -87.3047 78° East 194 223 7,000  Level Chicago Center
05:53AM 41.7822 -87.2328 79° East 196 226 7,000  Level Chicago Center
05:54AM 41.7925 -87.1606 79° East 198 228 7,000  Level Chicago Center
05:55AM 41.8025 -87.0886 79° East 197 227 7,000  Level Chicago Center
05:56AM 41.8128 -87.0172 79° East 197 227 7,000  Level Chicago Center
05:57AM 41.8222 -86.9464 80° East 195 224 7,000  Level Chicago Center
05:58AM 41.8325 -86.8758 79° East 194 223 7,000  Level Chicago Center
05:59AM 41.8414 -86.8053 80° East 193 222 7,000  Level Chicago Center
06:00AM 41.8522 -86.7342 78° East 195 224 7,000  Level Chicago Center
06:01AM 41.8611 -86.6628 80° East 194 223 7,000  Level Chicago Center
06:02AM 41.8708 -86.5903 80° East 197 227 7,000  Level Chicago Center
06:03AM 41.8806 -86.5169 80° East 201 231 7,000  Level Chicago Center
06:04AM 41.8900 -86.4431 80° East 202 232 7,000  Level Chicago Center
06:05AM 41.9000 -86.3689 80° East 202 232 7,000  Level Chicago Center
06:06AM 41.9097 -86.2944 80° East 202 232 7,000  Level Chicago Center
06:07AM 41.9192 -86.2189 80° East 204 235 7,000  Level Chicago Center
06:08AM 41.9286 -86.1453 80° East 202 232 7,000  Level Chicago Center
06:09AM 41.9386 -86.0706 80° East 203 234 7,000  Level Chicago Center
06:10AM 41.9483 -85.9953 80° East 203 234 7,000  Level Chicago Center
06:11AM 41.9586 -85.9203 80° East 204 235 7,000  Level Chicago Center
06:12AM 41.9675 -85.8469 81° East 201 231 7,000  Level Chicago Center
06:13AM 41.9769 -85.7711 80° East 205 236 7,000  Level Chicago Center
06:14AM 41.9872 -85.6961 80° East 204 235 7,000  Level Chicago Center
06:15AM 41.9983 -85.6053 81° East 204 235 7,000  Level Chicago Center
06:16AM 42.0081 -85.5306 80° East 203 234 7,000  Level Chicago Center
06:17AM 42.0178 -85.4558 80° East 203 234 7,000  Level Chicago Center
06:18AM 42.0261 -85.3819 81° East 201 231 7,000  Level Chicago Center
06:19AM 42.0356 -85.3078 80° East 201 231 7,000  Level Chicago Center
06:20AM 42.0453 -85.2342 80° East 200 230 7,000  Level Chicago Center
06:21AM 42.0542 -85.1600 81° East 200 230 7,000  Level Chicago Center
06:22AM 42.0628 -85.0875 81° East 198 228 7,000  Level Chicago Center
06:23AM 42.0714 -85.0136 81° East 198 228 7,000  Level Chicago Center
06:24AM 42.0803 -84.9397 81° East 199 229 7,000  Level Chicago Center
06:25AM 42.0894 -84.8667 80° East 199 229 7,000  Level Chicago Center
06:26AM 42.0981 -84.7911 81° East 201 231 7,000  Level Chicago Center
06:27AM 42.1067 -84.7169 81° East 201 231 7,000  Level Chicago Center
06:28AM 42.1153 -84.6436 81° East 199 229 7,000  Level Chicago Center
06:29AM 42.1239 -84.5706 81° East 199 229 7,000  Level Chicago Center
06:30AM 42.1322 -84.4931 82° East 200 230 7,000  Level Chicago Center
06:31AM 42.1408 -84.4186 81° East 200 230 7,000  Level Chicago Center
06:32AM 42.1503 -84.3450 80° East 201 231 7,000  Level Chicago Center
06:33AM 42.1583 -84.2711 82° East 199 229 7,000  Level Chicago Center
06:34AM 42.1658 -84.1989 82° East 197 227 7,000  Level Chicago Center
06:35AM 42.1750 -84.1258 80° East 198 228 7,000  Level Chicago Center
06:36AM 42.1819 -84.0569 82° East 194 223 7,000  Level Chicago Center
06:37AM 42.1925 -83.9858 79° East 190 219 7,000  Level Chicago Center